Time;durP1;ratioP1;P1;durP2;ratioP2;P2;SDS_P1;SDS_P2;PMS_P1;PMS_P2;Temp;Humidity;BMP_temperature;BMP_pressure;BME280_temperature;BME280_humidity;BME280_pressure;Samples;Min_cycle;Max_cycle;Signal;HPM_P1;HPM_P2
2024/01/10 00:01:41;;;;;;;0.10;0.10;;;-3274.60;80.40;;;;;;4967775;28;20055;-72
2024/01/10 00:04:07;;;;;;;0.10;0.10;;;-3274.60;80.40;;;;;;4967817;28;20070;-72
2024/01/10 00:06:33;;;;;;;0.00;0.00;;;-3274.60;80.30;;;;;;4967392;28;20101;-72
2024/01/10 00:08:59;;;;;;;0.10;0.10;;;-3274.60;80.40;;;;;;4967505;28;20050;-72
2024/01/10 00:11:24;;;;;;;0.10;0.10;;;-3274.60;80.10;;;;;;4967848;28;20602;-72
2024/01/10 00:13:50;;;;;;;0.10;0.10;;;-3274.60;79.80;;;;;;4968011;28;20547;-72
2024/01/10 00:16:15;;;;;;;0.57;0.57;;;-3274.70;79.60;;;;;;4967820;28;20630;-72
2024/01/10 00:18:41;;;;;;;6.50;2.63;;;-3274.70;79.60;;;;;;4966677;28;20046;-72
2024/01/10 00:21:08;;;;;;;0.10;0.10;;;-3274.70;79.30;;;;;;4967457;28;20054;-72
2024/01/10 00:23:33;;;;;;;0.10;0.10;;;-3274.60;79.00;;;;;;4967376;28;20105;-72
2024/01/10 00:25:59;;;;;;;0.10;0.10;;;-3274.60;79.10;;;;;;4966857;28;20497;-72
2024/01/10 00:28:25;;;;;;;0.22;0.22;;;-3274.60;78.90;;;;;;4967108;28;20049;-72
2024/01/10 00:30:51;;;;;;;0.13;0.13;;;-3274.60;79.00;;;;;;4970968;28;20039;-72
2024/01/10 00:33:17;;;;;;;0.10;0.10;;;-3274.70;79.30;;;;;;4969898;28;20112;-72
2024/01/10 00:35:43;;;;;;;0.10;0.10;;;-3274.70;79.20;;;;;;4970976;28;20062;-72
2024/01/10 00:38:09;;;;;;;0.10;0.10;;;-3274.60;79.20;;;;;;4971365;28;20854;-72
2024/01/10 00:40:35;;;;;;;0.10;0.10;;;-3274.60;79.10;;;;;;4970744;28;20389;-72
2024/01/10 00:43:02;;;;;;;0.10;0.10;;;-3274.60;79.40;;;;;;4969911;28;20054;-72
2024/01/10 00:45:27;;;;;;;0.50;0.50;;;-3274.60;79.40;;;;;;4970382;28;20665;-72
2024/01/10 00:47:53;;;;;;;0.00;0.00;;;-3274.60;79.50;;;;;;4971067;28;20101;-72
2024/01/10 00:50:19;;;;;;;0.10;0.10;;;-3274.70;79.40;;;;;;4969716;28;20563;-72
2024/01/10 00:52:45;;;;;;;0.10;0.10;;;-3274.70;79.50;;;;;;4970636;28;20054;-72
2024/01/10 00:55:11;;;;;;;0.10;0.10;;;-3274.60;79.40;;;;;;4970417;28;20054;-72
2024/01/10 00:57:39;;;;;;;0.00;0.00;;;-3274.60;79.50;;;;;;4969697;28;20047;-72
2024/01/10 01:00:10;;;;;;;0.03;0.03;;;-3274.60;79.60;;;;;;4970519;28;20552;-72
2024/01/10 01:02:36;;;;;;;0.10;0.10;;;-3274.60;79.60;;;;;;4972082;28;20061;-72
2024/01/10 01:05:05;;;;;;;0.10;0.10;;;-3274.60;79.40;;;;;;4971603;28;20054;-72
2024/01/10 01:07:31;;;;;;;0.10;0.10;;;-3274.50;79.50;;;;;;4970545;28;20085;-72
2024/01/10 01:09:57;;;;;;;0.10;0.10;;;-3274.60;79.40;;;;;;4970736;28;20070;-72
2024/01/10 01:12:22;;;;;;;0.10;0.10;;;-3274.50;79.20;;;;;;4968871;28;20050;-72
2024/01/10 01:14:48;;;;;;;0.00;0.00;;;-3274.50;79.20;;;;;;4970304;28;20146;-72
2024/01/10 01:17:13;;;;;;;0.10;0.10;;;-3274.60;78.70;;;;;;4969954;28;20160;-72
2024/01/10 01:19:39;;;;;;;0.00;0.00;;;-3274.50;78.50;;;;;;4974137;28;20043;-72
2024/01/10 01:22:05;;;;;;;0.70;0.63;;;-3274.50;78.50;;;;;;4970439;28;20158;-73
2024/01/10 01:24:30;;;;;;;0.00;0.00;;;-3274.50;78.70;;;;;;4970355;28;20092;-72
2024/01/10 01:26:56;;;;;;;0.90;0.90;;;-3274.60;78.40;;;;;;4970196;28;20038;-72
2024/01/10 01:29:22;;;;;;;0.10;0.10;;;-3274.50;78.30;;;;;;4970200;28;20051;-72
2024/01/10 01:31:48;;;;;;;0.73;0.55;;;-3274.50;78.40;;;;;;4970081;28;20059;-72
2024/01/10 01:34:13;;;;;;;0.08;0.08;;;-3274.50;78.50;;;;;;4971612;28;20046;-72
2024/01/10 01:36:39;;;;;;;0.10;0.10;;;-3274.50;78.80;;;;;;4969822;28;20043;-72
2024/01/10 01:39:05;;;;;;;0.00;0.00;;;-3274.50;79.00;;;;;;4968700;28;20157;-72
2024/01/10 01:41:31;;;;;;;0.10;0.10;;;-3274.50;79.20;;;;;;4970287;28;20085;-72
2024/01/10 01:43:57;;;;;;;1.40;0.95;;;-3274.50;79.20;;;;;;4973802;28;20078;-72
2024/01/10 01:46:23;;;;;;;0.00;0.00;;;-3274.50;79.10;;;;;;4969726;28;20054;-72
2024/01/10 01:48:50;;;;;;;0.10;0.10;;;-3274.50;79.10;;;;;;4971180;28;20082;-72
2024/01/10 01:51:17;;;;;;;0.10;0.10;;;-3274.60;79.20;;;;;;4976077;28;20042;-72
2024/01/10 01:53:44;;;;;;;0.10;0.10;;;-3274.50;79.30;;;;;;4975387;28;20043;-72
2024/01/10 01:56:12;;;;;;;0.10;0.10;;;-3274.50;79.50;;;;;;4969457;28;20050;-73
2024/01/10 01:58:39;;;;;;;0.00;0.00;;;-3274.60;79.60;;;;;;4969832;28;20126;-72
2024/01/10 02:01:06;;;;;;;0.10;0.10;;;-3274.50;79.70;;;;;;4968193;28;20476;-72
2024/01/10 02:03:32;;;;;;;0.10;0.10;;;-3274.60;79.50;;;;;;4969440;28;20042;-73
2024/01/10 02:05:59;;;;;;;0.10;0.10;;;-3274.60;79.70;;;;;;4968997;28;20117;-72
2024/01/10 02:08:25;;;;;;;0.00;0.00;;;-3274.50;80.00;;;;;;4969346;28;20097;-72
2024/01/10 02:10:50;;;;;;;0.10;0.10;;;-3274.40;80.40;;;;;;4969777;28;20620;-72
2024/01/10 02:13:17;;;;;;;0.00;0.00;;;-3274.40;80.60;;;;;;4967600;28;20035;-72
2024/01/10 02:15:43;;;;;;;0.10;0.10;;;-3274.40;80.90;;;;;;4969073;28;20049;-72
2024/01/10 02:18:14;;;;;;;0.52;0.50;;;-3274.50;80.70;;;;;;4968819;28;20046;-71
2024/01/10 02:20:42;;;;;;;0.28;0.28;;;-3274.50;80.80;;;;;;4969694;28;20061;-72
2024/01/10 02:23:08;;;;;;;4.10;1.20;;;-3274.30;80.90;;;;;;4969657;28;20049;-72
2024/01/10 02:25:35;;;;;;;2.45;1.00;;;-3274.30;81.10;;;;;;4969015;28;20059;-72
2024/01/10 02:28:00;;;;;;;1.92;1.75;;;-3274.40;81.10;;;;;;4968382;28;20039;-72
2024/01/10 02:30:26;;;;;;;0.47;0.47;;;-3274.40;81.00;;;;;;4967944;28;20120;-72
2024/01/10 02:32:52;;;;;;;0.10;0.10;;;-3274.40;80.70;;;;;;4968703;28;20043;-73
2024/01/10 02:35:17;;;;;;;0.00;0.00;;;-3274.40;80.50;;;;;;4968141;28;20066;-73
2024/01/10 02:37:43;;;;;;;0.10;0.10;;;-3274.40;80.30;;;;;;4968456;28;20039;-72
2024/01/10 02:40:09;;;;;;;0.25;0.25;;;-3274.40;80.20;;;;;;4967677;28;20046;-72
2024/01/10 02:42:35;;;;;;;0.05;0.05;;;-3274.30;80.20;;;;;;4968820;28;20054;-72
2024/01/10 02:45:01;;;;;;;0.10;0.10;;;-3274.40;80.10;;;;;;4966854;28;20448;-72
2024/01/10 02:47:27;;;;;;;0.10;0.10;;;-3274.40;79.90;;;;;;4968743;28;20113;-73
2024/01/10 02:49:53;;;;;;;0.00;0.00;;;-3274.40;79.50;;;;;;4969289;28;20097;-72
2024/01/10 02:52:19;;;;;;;0.10;0.10;;;-3274.40;79.30;;;;;;4968059;28;20058;-72
2024/01/10 02:54:45;;;;;;;0.00;0.00;;;-3274.40;79.30;;;;;;4968182;28;20500;-72
2024/01/10 02:57:11;;;;;;;0.75;0.63;;;-3274.40;78.70;;;;;;4968547;28;20082;-72
2024/01/10 02:59:37;;;;;;;0.10;0.10;;;-3274.40;78.80;;;;;;4973184;28;20074;-72
2024/01/10 03:02:02;;;;;;;0.35;0.35;;;-3274.30;78.80;;;;;;4973527;28;20469;-72
2024/01/10 03:04:28;;;;;;;0.10;0.10;;;-3274.30;78.80;;;;;;4977906;28;20065;-73
2024/01/10 03:06:54;;;;;;;0.10;0.10;;;-3274.40;78.80;;;;;;4967969;28;20570;-72
2024/01/10 03:09:19;;;;;;;0.10;0.10;;;-3274.50;78.60;;;;;;4957008;28;20563;-72
2024/01/10 03:11:45;;;;;;;0.10;0.10;;;-3274.40;78.20;;;;;;4965703;28;20093;-72
2024/01/10 03:14:11;;;;;;;0.00;0.00;;;-3274.40;78.30;;;;;;4967550;28;20093;-72
2024/01/10 03:16:37;;;;;;;0.05;0.05;;;-3274.40;78.20;;;;;;4967485;28;20039;-72
2024/01/10 03:19:03;;;;;;;0.00;0.00;;;-3274.40;77.90;;;;;;4971272;28;20046;-72
2024/01/10 03:21:29;;;;;;;0.85;0.85;;;-3274.40;78.00;;;;;;4969516;28;20042;-72
2024/01/10 03:23:59;;;;;;;0.10;0.10;;;-3274.40;77.80;;;;;;4958172;28;20046;-72
2024/01/10 03:26:26;;;;;;;0.40;0.40;;;-3274.40;77.60;;;;;;4967204;28;20559;-72
2024/01/10 03:28:52;;;;;;;0.10;0.10;;;-3274.40;77.50;;;;;;4968034;28;20046;-72
2024/01/10 03:31:18;;;;;;;0.00;0.00;;;-3274.50;77.60;;;;;;4968245;28;20078;-72
2024/01/10 03:33:44;;;;;;;0.10;0.10;;;-3274.30;77.70;;;;;;4967733;28;20047;-72
2024/01/10 03:36:13;;;;;;;0.20;0.20;;;-3274.40;77.40;;;;;;4967310;28;20098;-72
2024/01/10 03:38:39;;;;;;;0.57;0.57;;;-3274.40;77.40;;;;;;4968137;28;20047;-72
2024/01/10 03:41:04;;;;;;;0.17;0.17;;;-3274.40;77.20;;;;;;4968160;28;20057;-72
2024/01/10 03:43:30;;;;;;;0.10;0.10;;;-3274.40;77.10;;;;;;4967568;28;20078;-72
2024/01/10 03:45:57;;;;;;;0.68;0.68;;;-3274.30;77.20;;;;;;4967013;28;20122;-72
2024/01/10 03:48:23;;;;;;;0.10;0.10;;;-3274.30;77.40;;;;;;4967601;28;20055;-72
2024/01/10 03:50:49;;;;;;;0.10;0.10;;;-3274.30;77.70;;;;;;4967725;28;20115;-73
2024/01/10 03:53:14;;;;;;;0.10;0.10;;;-3274.30;77.80;;;;;;4967540;28;20042;-73
2024/01/10 03:55:40;;;;;;;0.10;0.10;;;-3274.20;78.00;;;;;;4967486;28;20527;-72
2024/01/10 03:58:06;;;;;;;0.10;0.10;;;-3274.30;78.20;;;;;;4950967;28;20093;-72
2024/01/10 04:00:32;;;;;;;0.10;0.10;;;-3274.20;78.30;;;;;;4967572;28;20500;-72
2024/01/10 04:02:57;;;;;;;1.45;1.38;;;-3274.30;78.30;;;;;;4967748;28;20047;-72
2024/01/10 04:05:25;;;;;;;0.10;0.10;;;-3274.30;78.20;;;;;;4969161;28;20121;-72
2024/01/10 04:07:54;;;;;;;0.30;0.30;;;-3274.20;78.10;;;;;;4988412;28;20050;-72
2024/01/10 04:10:20;;;;;;;0.40;0.40;;;-3274.20;78.30;;;;;;4971864;28;20081;-72
2024/01/10 04:12:46;;;;;;;2.63;1.15;;;-3274.30;78.40;;;;;;4971434;28;20054;-72
2024/01/10 04:15:12;;;;;;;0.20;0.20;;;-3274.20;78.30;;;;;;4972513;28;20077;-72
2024/01/10 04:17:38;;;;;;;0.10;0.10;;;-3274.20;78.50;;;;;;4972433;28;20050;-73
2024/01/10 04:20:04;;;;;;;0.20;0.20;;;-3274.30;78.50;;;;;;4972392;28;20035;-72
2024/01/10 04:22:30;;;;;;;0.10;0.10;;;-3274.30;78.40;;;;;;4972177;28;20054;-72
2024/01/10 04:25:01;;;;;;;0.05;0.05;;;-3274.30;78.70;;;;;;4972691;28;20038;-72
2024/01/10 04:27:27;;;;;;;0.10;0.10;;;-3274.20;78.60;;;;;;4972289;28;20038;-72
2024/01/10 04:29:53;;;;;;;0.10;0.10;;;-3274.20;78.80;;;;;;4972068;28;20330;-72
2024/01/10 04:32:18;;;;;;;0.10;0.10;;;-3274.30;78.90;;;;;;4971423;28;20102;-72
2024/01/10 04:34:44;;;;;;;0.10;0.10;;;-3274.30;78.90;;;;;;4971722;28;20050;-72
2024/01/10 04:37:10;;;;;;;0.10;0.10;;;-3274.20;79.00;;;;;;4975367;28;20043;-72
2024/01/10 04:39:37;;;;;;;0.20;0.20;;;-3274.30;79.10;;;;;;4980231;28;20137;-72
2024/01/10 04:42:03;;;;;;;0.10;0.10;;;-3274.20;79.10;;;;;;4972790;28;20471;-72
2024/01/10 04:44:29;;;;;;;0.03;0.03;;;-3274.30;79.10;;;;;;4972872;28;20177;-72
2024/01/10 04:46:55;;;;;;;0.00;0.00;;;-3274.30;79.10;;;;;;4973102;28;20133;-72
2024/01/10 04:49:20;;;;;;;0.10;0.10;;;-3274.30;78.80;;;;;;4970471;28;20066;-72
2024/01/10 04:51:46;;;;;;;0.10;0.10;;;-3274.30;78.90;;;;;;4968691;28;20043;-72
2024/01/10 04:54:12;;;;;;;0.10;0.10;;;-3274.30;78.70;;;;;;4963849;28;20461;-72
2024/01/10 04:56:38;;;;;;;0.10;0.10;;;-3274.30;78.80;;;;;;4959582;28;20078;-72
2024/01/10 04:59:04;;;;;;;0.00;0.00;;;-3274.40;78.80;;;;;;4972668;28;20766;-72
2024/01/10 05:01:31;;;;;;;0.10;0.10;;;-3274.40;78.50;;;;;;4970239;28;20061;-72
2024/01/10 05:03:57;;;;;;;1.38;1.38;;;-3274.30;78.00;;;;;;4972228;28;20051;-72
2024/01/10 05:06:23;;;;;;;0.00;0.00;;;-3274.30;78.00;;;;;;4969819;28;20054;-72
2024/01/10 05:08:49;;;;;;;0.10;0.10;;;-3274.30;78.00;;;;;;4970440;28;20397;-72
2024/01/10 05:11:15;;;;;;;0.10;0.10;;;-3274.30;78.00;;;;;;4967011;28;20063;-72
2024/01/10 05:13:41;;;;;;;0.10;0.10;;;-3274.30;78.00;;;;;;4951475;28;20042;-72
2024/01/10 05:16:07;;;;;;;1.65;1.17;;;-3274.20;77.70;;;;;;4959029;28;20850;-73
2024/01/10 05:18:33;;;;;;;0.10;0.10;;;-3274.30;77.90;;;;;;4962240;28;20046;-72
2024/01/10 05:21:00;;;;;;;0.10;0.10;;;-3274.30;77.90;;;;;;4969524;28;20045;-72
2024/01/10 05:23:25;;;;;;;0.73;0.68;;;-3274.20;77.80;;;;;;4971495;28;20046;-72
2024/01/10 05:25:51;;;;;;;0.10;0.10;;;-3274.30;78.10;;;;;;4970902;28;20039;-72
2024/01/10 05:28:17;;;;;;;0.10;0.10;;;-3274.20;78.10;;;;;;4969336;28;20050;-72
2024/01/10 05:30:43;;;;;;;0.10;0.10;;;-3274.20;78.20;;;;;;4962849;28;20062;-72
2024/01/10 05:33:09;;;;;;;0.10;0.10;;;-3274.20;78.20;;;;;;4966724;28;20047;-72
2024/01/10 05:35:35;;;;;;;0.55;0.50;;;-3274.30;78.40;;;;;;4964847;28;20050;-72
2024/01/10 05:38:04;;;;;;;0.10;0.10;;;-3274.30;78.40;;;;;;4967032;28;20309;-72
2024/01/10 05:40:31;;;;;;;0.43;0.43;;;-3274.40;78.40;;;;;;4969337;28;20042;-72
2024/01/10 05:42:57;;;;;;;0.15;0.15;;;-3274.30;78.20;;;;;;4967273;28;20109;-72
2024/01/10 05:45:23;;;;;;;0.00;0.00;;;-3274.30;78.10;;;;;;4964284;28;20420;-72
2024/01/10 05:47:49;;;;;;;0.10;0.10;;;-3274.30;78.00;;;;;;4960072;28;20043;-73
2024/01/10 05:50:14;;;;;;;0.10;0.10;;;-3274.20;77.70;;;;;;4969807;28;20866;-72
2024/01/10 05:52:40;;;;;;;0.10;0.10;;;-3274.30;77.90;;;;;;4964530;28;20116;-72
2024/01/10 05:55:08;;;;;;;1.35;1.00;;;-3274.30;77.60;;;;;;4968549;28;20045;-73
2024/01/10 05:57:35;;;;;;;0.30;0.30;;;-3274.20;77.60;;;;;;4955228;28;20113;-72
2024/01/10 06:00:00;;;;;;;0.30;0.30;;;-3274.20;77.80;;;;;;4963229;28;20038;-72
2024/01/10 06:02:26;;;;;;;0.00;0.00;;;-3274.10;77.80;;;;;;4970543;28;20053;-73
2024/01/10 06:04:52;;;;;;;0.00;0.00;;;-3274.10;77.90;;;;;;4966317;28;20779;-72
2024/01/10 06:07:18;;;;;;;0.10;0.10;;;-3274.10;77.90;;;;;;4964778;28;20043;-72
2024/01/10 06:09:44;;;;;;;0.10;0.10;;;-3274.10;77.90;;;;;;4966112;28;20089;-72
2024/01/10 06:12:10;;;;;;;0.00;0.00;;;-3274.10;78.00;;;;;;4969790;28;20035;-73
2024/01/10 06:14:35;;;;;;;0.10;0.10;;;-3274.10;78.00;;;;;;4965429;28;20035;-72
2024/01/10 06:17:03;;;;;;;0.10;0.10;;;-3274.00;78.20;;;;;;4966880;28;20047;-72
2024/01/10 06:19:30;;;;;;;0.28;0.28;;;-3274.10;78.20;;;;;;4968387;28;20051;-72
2024/01/10 06:21:57;;;;;;;0.00;0.00;;;-3274.00;78.20;;;;;;4960806;28;20500;-72
2024/01/10 06:24:23;;;;;;;0.30;0.30;;;-3274.10;78.10;;;;;;4962641;28;20526;-72
2024/01/10 06:26:49;;;;;;;0.15;0.15;;;-3274.20;78.00;;;;;;4968246;28;20046;-72
2024/01/10 06:29:15;;;;;;;0.20;0.20;;;-3274.10;78.20;;;;;;4967622;28;20046;-73
2024/01/10 06:31:41;;;;;;;0.10;0.10;;;-3274.00;78.40;;;;;;4961567;28;20074;-73
2024/01/10 06:34:08;;;;;;;0.10;0.10;;;-3274.00;78.60;;;;;;4958949;28;20063;-72
2024/01/10 06:36:34;;;;;;;0.63;0.63;;;-3274.00;78.50;;;;;;4966302;28;20042;-73
2024/01/10 06:38:59;;;;;;;0.08;0.08;;;-3274.00;78.50;;;;;;4967716;28;20512;-72
2024/01/10 06:41:25;;;;;;;1.33;1.23;;;-3274.00;78.40;;;;;;4968351;28;20461;-71
2024/01/10 06:43:52;;;;;;;0.25;0.25;;;-3274.10;78.50;;;;;;4966997;28;20515;-73
2024/01/10 06:46:18;;;;;;;0.10;0.10;;;-3274.10;78.20;;;;;;4965309;28;20054;-71
2024/01/10 06:48:43;;;;;;;0.20;0.20;;;-3274.10;78.10;;;;;;4964959;28;20039;-72
2024/01/10 06:51:13;;;;;;;0.00;0.00;;;-3274.20;78.30;;;;;;4967505;28;20600;-72
2024/01/10 06:53:39;;;;;;;0.00;0.00;;;-3274.10;78.10;;;;;;4969179;28;20035;-72
2024/01/10 06:56:06;;;;;;;0.98;0.95;;;-3274.10;77.90;;;;;;4967417;28;20837;-72
2024/01/10 06:58:32;;;;;;;0.10;0.10;;;-3274.10;77.50;;;;;;4966388;28;20058;-72
2024/01/10 07:01:00;;;;;;;0.60;0.60;;;-3274.10;77.50;;;;;;4976957;28;20054;-71
2024/01/10 07:03:26;;;;;;;0.10;0.10;;;-3274.20;77.60;;;;;;4968791;28;20062;-72
2024/01/10 07:05:52;;;;;;;0.20;0.20;;;-3274.10;77.30;;;;;;4966670;28;20109;-72
2024/01/10 07:08:17;;;;;;;0.00;0.00;;;-3274.10;77.50;;;;;;4973039;28;20046;-73
2024/01/10 07:10:43;;;;;;;0.30;0.30;;;-3274.10;77.70;;;;;;4972492;28;20520;-72
2024/01/10 07:13:09;;;;;;;0.00;0.00;;;-3274.10;77.60;;;;;;4968256;28;20039;-72
2024/01/10 07:15:35;;;;;;;0.10;0.10;;;-3274.20;77.80;;;;;;4967529;28;20035;-73
2024/01/10 07:18:01;;;;;;;0.00;0.00;;;-3274.20;77.80;;;;;;4968628;28;20069;-74
2024/01/10 07:20:26;;;;;;;0.10;0.10;;;-3274.40;79.90;;;;;;4975254;28;20633;-70
2024/01/10 07:22:52;;;;;;;0.68;0.68;;;-3274.40;78.80;;;;;;4967704;28;20177;-69
2024/01/10 07:25:18;;;;;;;0.20;0.20;;;-3274.50;78.50;;;;;;4966295;28;20042;-69
2024/01/10 07:27:44;;;;;;;0.10;0.10;;;-3274.40;77.80;;;;;;4967310;28;20105;-69
2024/01/10 07:30:13;;;;;;;0.10;0.10;;;-3274.40;77.70;;;;;;4966812;28;20043;-70
2024/01/10 07:32:48;;;;;;;0.38;0.38;;;-3274.40;77.40;;;;;;4967547;28;20135;-69
2024/01/10 07:35:14;;;;;;;2.67;1.83;;;-3274.40;77.10;;;;;;4967157;28;20082;-69
2024/01/10 07:37:41;;;;;;;0.10;0.10;;;-3274.30;76.90;;;;;;4967511;28;20051;-69
2024/01/10 07:40:10;;;;;;;0.10;0.10;;;-3274.40;76.70;;;;;;4969038;28;20109;-69
2024/01/10 07:42:37;;;;;;;0.10;0.10;;;-3274.30;76.70;;;;;;4969644;28;20092;-69
2024/01/10 07:45:07;;;;;;;0.20;0.20;;;-3274.30;76.80;;;;;;4971885;28;20558;-69
2024/01/10 07:47:37;;;;;;;0.10;0.10;;;-3274.30;76.70;;;;;;4972212;28;20055;-69
2024/01/10 07:50:04;;;;;;;0.00;0.00;;;-3274.30;76.50;;;;;;4973270;28;20085;-69
2024/01/10 07:52:30;;;;;;;0.10;0.10;;;-3274.20;76.90;;;;;;4972765;28;20349;-69
2024/01/10 07:54:55;;;;;;;0.10;0.10;;;-3274.20;77.40;;;;;;4971934;28;20043;-69
2024/01/10 07:57:21;;;;;;;0.10;0.10;;;-3274.10;77.60;;;;;;4972492;28;20286;-69
2024/01/10 07:59:47;;;;;;;0.10;0.10;;;-3274.10;77.60;;;;;;4971069;28;20150;-71
2024/01/10 08:02:12;;;;;;;0.57;0.57;;;-3274.20;77.90;;;;;;4971764;28;20118;-70
2024/01/10 08:04:38;;;;;;;0.50;0.50;;;-3274.20;77.80;;;;;;4968559;28;20856;-73
2024/01/10 08:07:04;;;;;;;0.10;0.10;;;-3274.30;77.90;;;;;;4975996;28;20169;-72
2024/01/10 08:09:30;;;;;;;0.10;0.10;;;-3274.30;77.80;;;;;;4978554;28;20408;-72
2024/01/10 08:11:55;;;;;;;0.30;0.30;;;-3274.40;77.80;;;;;;4977653;28;20037;-71
2024/01/10 08:14:21;;;;;;;0.40;0.40;;;-3274.40;77.80;;;;;;4976812;28;20219;-72
2024/01/10 08:16:46;;;;;;;0.40;0.40;;;-3274.50;77.70;;;;;;4974111;28;20374;-72
2024/01/10 08:19:12;;;;;;;0.10;0.10;;;-3274.50;77.60;;;;;;4980336;28;20044;-72
2024/01/10 08:21:38;;;;;;;0.15;0.15;;;-3274.50;77.10;;;;;;4980376;28;20038;-72
2024/01/10 08:24:04;;;;;;;0.13;0.13;;;-3274.50;76.70;;;;;;4993405;28;20043;-71
2024/01/10 08:26:30;;;;;;;0.00;0.00;;;-3274.50;76.30;;;;;;4978869;28;20054;-72
2024/01/10 08:28:56;;;;;;;0.65;0.65;;;-3274.40;76.00;;;;;;4978945;28;20385;-71
2024/01/10 08:31:22;;;;;;;0.10;0.10;;;-3274.50;75.90;;;;;;4980052;28;20046;-72
2024/01/10 08:33:48;;;;;;;0.00;0.00;;;-3274.50;76.10;;;;;;4974560;28;20054;-70
2024/01/10 08:36:16;;;;;;;0.10;0.10;;;-3274.40;76.30;;;;;;4978534;28;20038;-70
2024/01/10 08:38:42;;;;;;;0.30;0.30;;;-3274.50;75.90;;;;;;4978682;28;20043;-70
2024/01/10 08:41:11;;;;;;;0.08;0.08;;;-3274.50;75.60;;;;;;4979665;28;20094;-70
2024/01/10 08:43:40;;;;;;;0.00;0.00;;;-3274.40;75.30;;;;;;4977204;28;20507;-70
2024/01/10 08:46:06;;;;;;;0.10;0.10;;;-3274.40;75.40;;;;;;4977407;28;20066;-70
2024/01/10 08:48:32;;;;;;;0.00;0.00;;;-3274.40;75.40;;;;;;4978180;28;20039;-70
2024/01/10 08:50:57;;;;;;;0.65;0.65;;;-3274.40;75.50;;;;;;4978192;28;20381;-70
2024/01/10 08:53:24;;;;;;;0.95;0.95;;;-3274.40;75.20;;;;;;4977468;28;20039;-69
2024/01/10 08:55:50;;;;;;;0.00;0.00;;;-3274.40;75.30;;;;;;4977356;28;20058;-70
2024/01/10 08:58:15;;;;;;;0.00;0.00;;;-3274.40;75.30;;;;;;4978802;28;20047;-71
2024/01/10 09:00:41;;;;;;;0.68;0.68;;;-3275.40;82.20;;;;;;4977026;28;20042;-70
2024/01/10 09:03:07;;;;;;;0.10;0.10;;;-3275.20;78.60;;;;;;4978742;28;20073;-70
2024/01/10 09:05:33;;;;;;;0.10;0.10;;;-3275.00;75.00;;;;;;4975949;28;20385;-71
2024/01/10 09:07:58;;;;;;;0.73;0.73;;;-3275.00;74.60;;;;;;4977179;28;20050;-70
2024/01/10 09:10:27;;;;;;;0.00;0.00;;;-3274.80;73.20;;;;;;4975623;28;20165;-70
2024/01/10 09:12:53;;;;;;;0.08;0.08;;;-3274.80;73.80;;;;;;4977434;28;20051;-70
2024/01/10 09:15:19;;;;;;;0.68;0.68;;;-3274.80;73.40;;;;;;4977060;28;20053;-70
2024/01/10 09:17:45;;;;;;;0.20;0.20;;;-3274.80;73.30;;;;;;4972439;28;20054;-69
2024/01/10 09:20:12;;;;;;;0.10;0.10;;;-3274.80;72.60;;;;;;4967327;28;20038;-69
2024/01/10 09:22:38;;;;;;;0.65;0.65;;;-3274.80;72.70;;;;;;4967600;28;20082;-72
2024/01/10 09:25:08;;;;;;;0.15;0.15;;;-3274.90;73.00;;;;;;4979696;28;20496;-71
2024/01/10 09:27:34;;;;;;;2.13;0.75;;;-3274.80;72.60;;;;;;4990180;28;20082;-72
2024/01/10 09:30:01;;;;;;;1.23;0.63;;;-3274.90;72.20;;;;;;4979472;28;20100;-72
2024/01/10 09:32:28;;;;;;;2.10;0.98;;;-3274.90;71.70;;;;;;4972343;28;20452;-72
2024/01/10 09:34:55;;;;;;;0.22;0.22;;;-3274.90;72.00;;;;;;4976122;28;20054;-73
2024/01/10 09:37:21;;;;;;;0.00;0.00;;;-3275.00;72.40;;;;;;4985123;28;20519;-74
2024/01/10 09:39:46;;;;;;;0.10;0.10;;;-3275.00;72.50;;;;;;4982490;28;20042;-72
2024/01/10 09:42:14;;;;;;;0.15;0.15;;;-3274.90;72.00;;;;;;4976863;28;20385;-72
2024/01/10 09:44:41;;;;;;;0.10;0.10;;;-3275.00;72.30;;;;;;4978472;28;20046;-74
2024/01/10 09:47:08;;;;;;;0.00;0.00;;;-3275.00;72.10;;;;;;4968242;28;20062;-74
2024/01/10 09:49:34;;;;;;;0.20;0.20;;;-3275.00;72.10;;;;;;4968721;28;20412;-74
2024/01/10 09:52:03;;;;;;;0.10;0.10;;;-3275.00;72.00;;;;;;4969507;28;20113;-73
2024/01/10 09:54:30;;;;;;;0.00;0.00;;;-3275.00;71.90;;;;;;4968906;28;20186;-74
2024/01/10 09:56:59;;;;;;;0.75;0.75;;;-3275.00;72.00;;;;;;4969731;28;20050;-74
2024/01/10 09:59:24;;;;;;;0.10;0.10;;;-3275.10;72.20;;;;;;4969574;28;20046;-74
2024/01/10 10:01:52;;;;;;;0.00;0.00;;;-3275.10;72.20;;;;;;4972216;28;20089;-74
2024/01/10 10:04:19;;;;;;;0.10;0.10;;;-3275.20;72.20;;;;;;4970896;28;20063;-75
2024/01/10 10:06:45;;;;;;;0.10;0.10;;;-3275.20;71.80;;;;;;4966351;28;20047;-74
2024/01/10 10:09:12;;;;;;;0.13;0.13;;;-3275.30;72.10;;;;;;4969096;28;20496;-75
2024/01/10 10:11:38;;;;;;;0.55;0.55;;;-3275.30;72.10;;;;;;4969952;28;20042;-74
2024/01/10 10:14:22;;;;;;;0.10;0.10;;;-3275.30;72.00;;;;;;4969876;28;20411;-75
2024/01/10 10:16:47;;;;;;;0.10;0.10;;;-3275.30;72.30;;;;;;4968812;28;20444;-74
2024/01/10 10:19:23;;;;;;;2.25;1.17;;;-3275.30;72.20;;;;;;4969082;28;20144;-73
2024/01/10 10:21:48;;;;;;;0.08;0.08;;;-3275.30;72.00;;;;;;4976870;28;20031;-71
2024/01/10 10:24:14;;;;;;;0.10;0.10;;;-3275.40;72.30;;;;;;4974768;28;20038;-71
2024/01/10 10:26:41;;;;;;;0.10;0.10;;;-3275.40;72.20;;;;;;4977210;28;20038;-71
2024/01/10 10:29:07;;;;;;;1.55;1.45;;;-3275.50;72.40;;;;;;4969159;28;20058;-73
2024/01/10 10:31:33;;;;;;;0.00;0.00;;;-3275.50;72.50;;;;;;4973118;28;20543;-72
2024/01/10 10:34:02;;;;;;;0.10;0.10;;;-3275.50;72.30;;;;;;4967960;28;20078;-72
2024/01/10 10:36:29;;;;;;;0.50;0.50;;;-3275.50;72.10;;;;;;4968107;28;20054;-72
2024/01/10 10:38:55;;;;;;;0.10;0.10;;;-3275.50;72.30;;;;;;4967440;28;20049;-73
2024/01/10 10:41:21;;;;;;;0.55;0.55;;;-3275.60;72.50;;;;;;4967014;28;20038;-72
2024/01/10 10:43:50;;;;;;;0.10;0.10;;;-3275.70;72.50;;;;;;4971048;28;20042;-73
2024/01/10 10:46:16;;;;;;;0.10;0.10;;;-3275.70;72.50;;;;;;4974870;28;20126;-72
2024/01/10 10:48:42;;;;;;;0.03;0.03;;;-3275.80;70.90;;;;;;4976065;28;20047;-72
2024/01/10 10:51:16;;;;;;;0.40;0.40;;;-3275.90;70.90;;;;;;4968933;28;20101;-71
2024/01/10 10:53:45;;;;;;;0.10;0.10;;;-3275.90;71.30;;;;;;4979052;28;20046;-71
2024/01/10 10:56:12;;;;;;;0.10;0.10;;;-3275.90;71.10;;;;;;4967241;28;20101;-70
2024/01/10 10:58:43;;;;;;;0.10;0.10;;;-3275.90;71.50;;;;;;4970097;28;20083;-71
2024/01/10 11:01:11;;;;;;;0.10;0.10;;;-3275.90;71.20;;;;;;4967852;28;20097;-70
2024/01/10 11:03:40;;;;;;;1.75;1.00;;;-3276.00;71.40;;;;;;4968199;28;20085;-70
2024/01/10 11:06:06;;;;;;;0.32;0.32;;;-3276.10;71.50;;;;;;4967878;28;20063;-71
2024/01/10 11:09:11;;;;;;;0.10;0.10;;;-3276.10;70.40;;;;;;4968125;28;20072;-70
2024/01/10 11:12:03;;;;;;;0.00;0.00;;;-3276.10;69.90;;;;;;4912388;29;20498;-70
2024/01/10 11:14:55;;;;;;;0.15;0.15;;;-3276.10;70.30;;;;;;4954646;28;20054;-71
2024/01/10 11:17:36;;;;;;;0.77;0.77;;;-3276.10;71.00;;;;;;4961998;28;20050;-69
2024/01/10 11:20:09;;;;;;;0.10;0.10;;;-3276.10;70.80;;;;;;4974250;28;20137;-70
2024/01/10 11:23:00;;;;;;;0.52;0.52;;;-3276.20;70.70;;;;;;4973233;28;20054;-70
2024/01/10 11:25:29;;;;;;;0.15;0.15;;;-3276.20;70.00;;;;;;4969929;28;20046;-70
2024/01/10 11:27:57;;;;;;;0.10;0.10;;;-3276.30;70.50;;;;;;4968234;28;20114;-70
2024/01/10 11:30:40;;;;;;;0.10;0.10;;;-3276.30;69.80;;;;;;4966931;28;20456;-70
2024/01/10 11:33:19;;;;;;;0.10;0.10;;;-3276.30;69.90;;;;;;4968339;28;20054;-70
2024/01/10 11:36:17;;;;;;;0.90;0.90;;;-3276.30;69.20;;;;;;4966678;28;20412;-70
2024/01/10 11:38:52;;;;;;;0.45;0.45;;;-3276.30;69.00;;;;;;4962405;28;20043;-70
2024/01/10 11:41:27;;;;;;;0.63;0.63;;;-3276.30;68.90;;;;;;4966441;28;20055;-70
2024/01/10 11:46:52;;;;;;;0.10;0.10;;;-3276.30;68.30;;;;;;4966267;28;20598;-70
2024/01/10 11:49:19;;;;;;;;;;;-3276.50;68.30;;;;;;4965755;28;20828;-70
2024/01/10 11:51:50;;;;;;;6.45;1.38;;;-3276.40;68.60;;;;;;4967141;28;19933;-70
2024/01/10 11:54:38;;;;;;;6.93;2.58;;;-3276.40;68.40;;;;;;4965688;28;20086;-70
2024/01/10 11:57:11;;;;;;;0.45;0.45;;;-3276.40;68.80;;;;;;4971660;28;20049;-70
2024/01/10 11:59:40;;;;;;;2.10;0.68;;;-3276.40;69.00;;;;;;4965727;28;20042;-70
2024/01/10 12:02:06;;;;;;;0.10;0.10;;;-3276.50;69.30;;;;;;4965717;28;20074;-70
2024/01/10 12:04:34;;;;;;;0.28;0.28;;;-3276.50;69.40;;;;;;4973624;28;20085;-71
2024/01/10 12:07:06;;;;;;;0.10;0.10;;;-3276.50;68.60;;;;;;4966700;28;20102;-71
2024/01/10 12:09:32;;;;;;;0.10;0.10;;;-3276.60;68.30;;;;;;4967242;28;20065;-71
2024/01/10 12:11:58;;;;;;;1.55;1.10;;;-3276.60;68.60;;;;;;4965258;28;20051;-71
2024/01/10 12:14:25;;;;;;;0.20;0.20;;;-3276.70;68.00;;;;;;4966951;28;20093;-70
2024/01/10 12:16:53;;;;;;;0.30;0.30;;;-3276.70;68.00;;;;;;4967369;28;20825;-70
2024/01/10 12:19:19;;;;;;;0.20;0.20;;;-3276.70;67.90;;;;;;4968048;28;20096;-71
2024/01/10 12:21:44;;;;;;;0.03;0.03;;;0.00;67.50;;;;;;4964854;28;20853;-70